sensor_id;sensor_type;location;lat;lon;timestamp;P1;durP1;ratioP1;P2;durP2;ratioP2
12675;SDS011;63820;65.654;21.944;2023-06-26T00:00:33;14.93;;;11.53;;
12675;SDS011;63820;65.654;21.944;2023-06-26T00:03:17;12.30;;;10.83;;
12675;SDS011;63820;65.654;21.944;2023-06-26T00:06:01;13.23;;;10.43;;
12675;SDS011;63820;65.654;21.944;2023-06-26T00:08:45;12.47;;;10.27;;
12675;SDS011;63820;65.654;21.944;2023-06-26T00:11:29;13.83;;;11.17;;
12675;SDS011;63820;65.654;21.944;2023-06-26T00:14:16;13.43;;;10.97;;
12675;SDS011;63820;65.654;21.944;2023-06-26T00:17:04;12.57;;;10.87;;
12675;SDS011;63820;65.654;21.944;2023-06-26T00:19:50;12.17;;;10.37;;
12675;SDS011;63820;65.654;21.944;2023-06-26T00:22:35;12.60;;;10.77;;
12675;SDS011;63820;65.654;21.944;2023-06-26T00:25:19;12.63;;;10.37;;
12675;SDS011;63820;65.654;21.944;2023-06-26T00:28:03;13.07;;;10.03;;
12675;SDS011;63820;65.654;21.944;2023-06-26T00:30:47;12.20;;;10.40;;
12675;SDS011;63820;65.654;21.944;2023-06-26T00:33:31;10.27;;;9.17;;
12675;SDS011;63820;65.654;21.944;2023-06-26T00:36:15;11.60;;;9.43;;
12675;SDS011;63820;65.654;21.944;2023-06-26T00:38:59;11.17;;;10.00;;
12675;SDS011;63820;65.654;21.944;2023-06-26T00:41:43;10.87;;;9.53;;
12675;SDS011;63820;65.654;21.944;2023-06-26T00:44:27;10.80;;;9.20;;
12675;SDS011;63820;65.654;21.944;2023-06-26T00:47:12;11.47;;;9.60;;
12675;SDS011;63820;65.654;21.944;2023-06-26T00:49:59;11.83;;;9.47;;
12675;SDS011;63820;65.654;21.944;2023-06-26T00:52:44;12.20;;;9.80;;
12675;SDS011;63820;65.654;21.944;2023-06-26T00:55:28;11.13;;;9.93;;
12675;SDS011;63820;65.654;21.944;2023-06-26T00:58:12;11.80;;;9.93;;
12675;SDS011;63820;65.654;21.944;2023-06-26T01:00:57;11.50;;;10.30;;
12675;SDS011;63820;65.654;21.944;2023-06-26T01:03:41;12.30;;;10.07;;
12675;SDS011;63820;65.654;21.944;2023-06-26T01:06:27;12.47;;;10.03;;
12675;SDS011;63820;65.654;21.944;2023-06-26T01:09:16;13.27;;;11.03;;
12675;SDS011;63820;65.654;21.944;2023-06-26T01:12:02;12.47;;;9.70;;
12675;SDS011;63820;65.654;21.944;2023-06-26T01:14:46;10.13;;;9.03;;
12675;SDS011;63820;65.654;21.944;2023-06-26T01:17:30;11.70;;;9.07;;
12675;SDS011;63820;65.654;21.944;2023-06-26T01:20:15;11.23;;;9.07;;
12675;SDS011;63820;65.654;21.944;2023-06-26T01:23:05;11.27;;;9.20;;
12675;SDS011;63820;65.654;21.944;2023-06-26T01:28:52;12.27;;;9.63;;
12675;SDS011;63820;65.654;21.944;2023-06-26T01:31:37;8.97;;;8.07;;
12675;SDS011;63820;65.654;21.944;2023-06-26T01:34:21;13.37;;;9.73;;
12675;SDS011;63820;65.654;21.944;2023-06-26T01:37:06;14.17;;;11.17;;
12675;SDS011;63820;65.654;21.944;2023-06-26T01:39:50;12.87;;;10.73;;
12675;SDS011;63820;65.654;21.944;2023-06-26T01:42:34;13.73;;;11.30;;
12675;SDS011;63820;65.654;21.944;2023-06-26T01:45:21;15.50;;;11.40;;
12675;SDS011;63820;65.654;21.944;2023-06-26T01:48:10;12.23;;;10.77;;
12675;SDS011;63820;65.654;21.944;2023-06-26T01:50:56;13.10;;;10.77;;
12675;SDS011;63820;65.654;21.944;2023-06-26T01:53:45;14.13;;;11.47;;
12675;SDS011;63820;65.654;21.944;2023-06-26T01:56:35;14.77;;;11.63;;
12675;SDS011;63820;65.654;21.944;2023-06-26T01:59:23;12.87;;;10.93;;
12675;SDS011;63820;65.654;21.944;2023-06-26T02:02:12;13.87;;;11.50;;
12675;SDS011;63820;65.654;21.944;2023-06-26T02:04:56;12.87;;;10.87;;
12675;SDS011;63820;65.654;21.944;2023-06-26T02:07:40;13.33;;;11.90;;
12675;SDS011;63820;65.654;21.944;2023-06-26T02:10:24;16.67;;;12.73;;
12675;SDS011;63820;65.654;21.944;2023-06-26T02:13:08;13.77;;;11.70;;
12675;SDS011;63820;65.654;21.944;2023-06-26T02:15:52;13.80;;;12.30;;
12675;SDS011;63820;65.654;21.944;2023-06-26T02:18:36;13.83;;;11.97;;
12675;SDS011;63820;65.654;21.944;2023-06-26T02:21:20;13.30;;;11.60;;
12675;SDS011;63820;65.654;21.944;2023-06-26T02:24:05;14.47;;;12.17;;
12675;SDS011;63820;65.654;21.944;2023-06-26T02:26:49;14.60;;;11.83;;
12675;SDS011;63820;65.654;21.944;2023-06-26T02:29:33;15.10;;;11.87;;
12675;SDS011;63820;65.654;21.944;2023-06-26T02:32:17;13.70;;;12.10;;
12675;SDS011;63820;65.654;21.944;2023-06-26T02:35:01;13.77;;;12.37;;
12675;SDS011;63820;65.654;21.944;2023-06-26T02:37:45;11.97;;;10.77;;
12675;SDS011;63820;65.654;21.944;2023-06-26T02:40:29;14.77;;;12.17;;
12675;SDS011;63820;65.654;21.944;2023-06-26T02:43:13;13.83;;;11.87;;
12675;SDS011;63820;65.654;21.944;2023-06-26T02:45:58;12.50;;;11.17;;
12675;SDS011;63820;65.654;21.944;2023-06-26T02:48:42;15.20;;;11.77;;
12675;SDS011;63820;65.654;21.944;2023-06-26T02:51:26;13.67;;;11.43;;
12675;SDS011;63820;65.654;21.944;2023-06-26T02:54:10;12.87;;;11.57;;
12675;SDS011;63820;65.654;21.944;2023-06-26T02:56:54;13.13;;;11.63;;
12675;SDS011;63820;65.654;21.944;2023-06-26T02:59:38;12.87;;;11.17;;
12675;SDS011;63820;65.654;21.944;2023-06-26T03:02:23;14.20;;;11.67;;
12675;SDS011;63820;65.654;21.944;2023-06-26T03:05:07;12.80;;;11.50;;
12675;SDS011;63820;65.654;21.944;2023-06-26T03:07:52;12.37;;;11.17;;
12675;SDS011;63820;65.654;21.944;2023-06-26T03:10:36;13.63;;;11.67;;
12675;SDS011;63820;65.654;21.944;2023-06-26T03:13:20;12.10;;;10.83;;
12675;SDS011;63820;65.654;21.944;2023-06-26T03:16:04;12.33;;;11.03;;
12675;SDS011;63820;65.654;21.944;2023-06-26T03:18:48;13.27;;;11.87;;
12675;SDS011;63820;65.654;21.944;2023-06-26T03:21:33;12.37;;;11.07;;
12675;SDS011;63820;65.654;21.944;2023-06-26T03:24:16;13.07;;;11.30;;
12675;SDS011;63820;65.654;21.944;2023-06-26T03:27:01;13.17;;;10.83;;
12675;SDS011;63820;65.654;21.944;2023-06-26T03:29:46;11.97;;;10.77;;
12675;SDS011;63820;65.654;21.944;2023-06-26T03:32:30;12.37;;;11.07;;
12675;SDS011;63820;65.654;21.944;2023-06-26T03:35:14;11.47;;;10.27;;
12675;SDS011;63820;65.654;21.944;2023-06-26T03:37:58;11.50;;;10.40;;
12675;SDS011;63820;65.654;21.944;2023-06-26T03:40:44;10.77;;;9.67;;
12675;SDS011;63820;65.654;21.944;2023-06-26T03:43:28;11.80;;;10.37;;
12675;SDS011;63820;65.654;21.944;2023-06-26T03:46:12;11.73;;;10.57;;
12675;SDS011;63820;65.654;21.944;2023-06-26T03:48:56;10.93;;;9.93;;
12675;SDS011;63820;65.654;21.944;2023-06-26T03:51:40;10.27;;;9.27;;
12675;SDS011;63820;65.654;21.944;2023-06-26T03:54:25;11.00;;;10.00;;
12675;SDS011;63820;65.654;21.944;2023-06-26T03:57:09;10.67;;;9.77;;
12675;SDS011;63820;65.654;21.944;2023-06-26T03:59:53;11.20;;;10.10;;
12675;SDS011;63820;65.654;21.944;2023-06-26T04:02:37;10.50;;;9.50;;
12675;SDS011;63820;65.654;21.944;2023-06-26T04:05:22;10.35;;;9.25;;
12675;SDS011;63820;65.654;21.944;2023-06-26T04:08:07;10.43;;;9.48;;
12675;SDS011;63820;65.654;21.944;2023-06-26T04:10:52;11.18;;;10.07;;
12675;SDS011;63820;65.654;21.944;2023-06-26T04:13:37;12.00;;;10.90;;
12675;SDS011;63820;65.654;21.944;2023-06-26T04:16:21;11.27;;;10.27;;
12675;SDS011;63820;65.654;21.944;2023-06-26T04:19:09;12.07;;;10.88;;
12675;SDS011;63820;65.654;21.944;2023-06-26T04:21:53;11.63;;;10.63;;
12675;SDS011;63820;65.654;21.944;2023-06-26T04:24:37;11.05;;;10.15;;
12675;SDS011;63820;65.654;21.944;2023-06-26T04:27:21;11.48;;;10.40;;
12675;SDS011;63820;65.654;21.944;2023-06-26T04:30:05;11.38;;;10.35;;
12675;SDS011;63820;65.654;21.944;2023-06-26T04:32:50;11.05;;;10.15;;
12675;SDS011;63820;65.654;21.944;2023-06-26T04:35:34;11.52;;;10.52;;
12675;SDS011;63820;65.654;21.944;2023-06-26T04:38:20;10.32;;;9.43;;
12675;SDS011;63820;65.654;21.944;2023-06-26T04:41:05;11.05;;;10.02;;
12675;SDS011;63820;65.654;21.944;2023-06-26T04:43:49;10.90;;;9.98;;
12675;SDS011;63820;65.654;21.944;2023-06-26T04:46:33;10.35;;;9.43;;
12675;SDS011;63820;65.654;21.944;2023-06-26T04:49:17;11.30;;;10.40;;
12675;SDS011;63820;65.654;21.944;2023-06-26T04:52:01;11.05;;;10.15;;
12675;SDS011;63820;65.654;21.944;2023-06-26T04:54:46;11.23;;;10.27;;
12675;SDS011;63820;65.654;21.944;2023-06-26T04:57:30;11.23;;;10.13;;
12675;SDS011;63820;65.654;21.944;2023-06-26T05:00:14;11.27;;;10.27;;
12675;SDS011;63820;65.654;21.944;2023-06-26T05:02:59;11.32;;;10.30;;
12675;SDS011;63820;65.654;21.944;2023-06-26T05:05:44;11.63;;;10.52;;
12675;SDS011;63820;65.654;21.944;2023-06-26T05:08:29;11.57;;;10.13;;
12675;SDS011;63820;65.654;21.944;2023-06-26T05:11:13;11.13;;;10.13;;
12675;SDS011;63820;65.654;21.944;2023-06-26T05:13:57;11.32;;;10.32;;
12675;SDS011;63820;65.654;21.944;2023-06-26T05:16:41;11.07;;;10.07;;
12675;SDS011;63820;65.654;21.944;2023-06-26T05:19:25;11.50;;;10.50;;
12675;SDS011;63820;65.654;21.944;2023-06-26T05:22:09;11.77;;;10.68;;
12675;SDS011;63820;65.654;21.944;2023-06-26T05:24:56;10.77;;;9.77;;
12675;SDS011;63820;65.654;21.944;2023-06-26T05:27:43;11.13;;;10.07;;
12675;SDS011;63820;65.654;21.944;2023-06-26T05:30:27;10.77;;;9.77;;
12675;SDS011;63820;65.654;21.944;2023-06-26T05:33:12;10.18;;;9.27;;
12675;SDS011;63820;65.654;21.944;2023-06-26T05:35:58;11.05;;;9.95;;
12675;SDS011;63820;65.654;21.944;2023-06-26T05:38:43;11.20;;;10.00;;
12675;SDS011;63820;65.654;21.944;2023-06-26T05:41:28;11.30;;;10.18;;
12675;SDS011;63820;65.654;21.944;2023-06-26T05:44:12;10.98;;;9.98;;
12675;SDS011;63820;65.654;21.944;2023-06-26T05:46:56;10.57;;;9.57;;
12675;SDS011;63820;65.654;21.944;2023-06-26T05:49:40;10.40;;;9.50;;
12675;SDS011;63820;65.654;21.944;2023-06-26T05:52:24;10.07;;;9.18;;
12675;SDS011;63820;65.654;21.944;2023-06-26T05:55:09;10.00;;;9.20;;
12675;SDS011;63820;65.654;21.944;2023-06-26T05:57:55;10.63;;;9.70;;
12675;SDS011;63820;65.654;21.944;2023-06-26T06:00:43;9.65;;;8.82;;
12675;SDS011;63820;65.654;21.944;2023-06-26T06:03:27;9.70;;;8.90;;
12675;SDS011;63820;65.654;21.944;2023-06-26T06:06:11;10.02;;;8.95;;
12675;SDS011;63820;65.654;21.944;2023-06-26T06:08:55;9.85;;;8.70;;
12675;SDS011;63820;65.654;21.944;2023-06-26T06:11:40;9.38;;;8.57;;
12675;SDS011;63820;65.654;21.944;2023-06-26T06:14:24;9.18;;;8.48;;
12675;SDS011;63820;65.654;21.944;2023-06-26T06:17:08;9.57;;;8.70;;
12675;SDS011;63820;65.654;21.944;2023-06-26T06:19:52;6.90;;;6.40;;
12675;SDS011;63820;65.654;21.944;2023-06-26T06:22:36;8.50;;;7.80;;
12675;SDS011;63820;65.654;21.944;2023-06-26T06:25:21;6.45;;;5.85;;
12675;SDS011;63820;65.654;21.944;2023-06-26T06:28:05;6.97;;;6.45;;
12675;SDS011;63820;65.654;21.944;2023-06-26T06:30:49;7.40;;;6.85;;
12675;SDS011;63820;65.654;21.944;2023-06-26T06:33:33;8.82;;;6.93;;
12675;SDS011;63820;65.654;21.944;2023-06-26T06:36:18;7.43;;;6.70;;
12675;SDS011;63820;65.654;21.944;2023-06-26T06:39:02;7.00;;;5.97;;
12675;SDS011;63820;65.654;21.944;2023-06-26T06:41:47;6.57;;;6.05;;
12675;SDS011;63820;65.654;21.944;2023-06-26T06:44:31;6.28;;;5.78;;
12675;SDS011;63820;65.654;21.944;2023-06-26T06:47:15;6.85;;;6.35;;
12675;SDS011;63820;65.654;21.944;2023-06-26T06:50:00;6.65;;;6.05;;
12675;SDS011;63820;65.654;21.944;2023-06-26T06:52:54;6.57;;;6.07;;
12675;SDS011;63820;65.654;21.944;2023-06-26T06:55:39;6.43;;;5.93;;
12675;SDS011;63820;65.654;21.944;2023-06-26T06:58:23;6.00;;;5.60;;
12675;SDS011;63820;65.654;21.944;2023-06-26T07:01:11;6.15;;;5.45;;
12675;SDS011;63820;65.654;21.944;2023-06-26T07:03:56;5.75;;;5.35;;
12675;SDS011;63820;65.654;21.944;2023-06-26T07:06:41;7.70;;;5.25;;
12675;SDS011;63820;65.654;21.944;2023-06-26T07:09:25;5.65;;;5.20;;
12675;SDS011;63820;65.654;21.944;2023-06-26T07:12:10;5.65;;;5.25;;
12675;SDS011;63820;65.654;21.944;2023-06-26T07:14:55;5.63;;;5.22;;
12675;SDS011;63820;65.654;21.944;2023-06-26T07:17:39;5.65;;;5.07;;
12675;SDS011;63820;65.654;21.944;2023-06-26T07:20:24;5.80;;;5.30;;
12675;SDS011;63820;65.654;21.944;2023-06-26T07:23:08;6.10;;;5.60;;
12675;SDS011;63820;65.654;21.944;2023-06-26T07:25:53;6.25;;;5.68;;
12675;SDS011;63820;65.654;21.944;2023-06-26T07:28:37;6.60;;;6.00;;
12675;SDS011;63820;65.654;21.944;2023-06-26T07:31:21;6.85;;;6.20;;
12675;SDS011;63820;65.654;21.944;2023-06-26T07:34:05;6.65;;;6.15;;
12675;SDS011;63820;65.654;21.944;2023-06-26T07:36:49;6.32;;;5.82;;
12675;SDS011;63820;65.654;21.944;2023-06-26T07:39:33;7.78;;;6.43;;
12675;SDS011;63820;65.654;21.944;2023-06-26T07:42:18;6.50;;;5.95;;
12675;SDS011;63820;65.654;21.944;2023-06-26T07:45:02;6.63;;;6.13;;
12675;SDS011;63820;65.654;21.944;2023-06-26T07:47:53;6.25;;;5.80;;
12675;SDS011;63820;65.654;21.944;2023-06-26T07:50:38;6.05;;;5.60;;
12675;SDS011;63820;65.654;21.944;2023-06-26T07:53:22;6.43;;;5.88;;
12675;SDS011;63820;65.654;21.944;2023-06-26T07:56:06;5.57;;;5.18;;
12675;SDS011;63820;65.654;21.944;2023-06-26T07:58:50;6.20;;;5.70;;
12675;SDS011;63820;65.654;21.944;2023-06-26T08:01:34;6.07;;;5.60;;
12675;SDS011;63820;65.654;21.944;2023-06-26T08:04:19;6.28;;;5.80;;
12675;SDS011;63820;65.654;21.944;2023-06-26T08:07:05;7.13;;;6.53;;
12675;SDS011;63820;65.654;21.944;2023-06-26T08:09:49;6.50;;;5.90;;
12675;SDS011;63820;65.654;21.944;2023-06-26T08:12:33;6.47;;;5.97;;
12675;SDS011;63820;65.654;21.944;2023-06-26T08:15:17;6.38;;;5.78;;
12675;SDS011;63820;65.654;21.944;2023-06-26T08:18:02;6.28;;;5.78;;
12675;SDS011;63820;65.654;21.944;2023-06-26T08:20:46;6.28;;;5.80;;
12675;SDS011;63820;65.654;21.944;2023-06-26T08:23:30;6.47;;;5.97;;
12675;SDS011;63820;65.654;21.944;2023-06-26T08:26:15;5.68;;;5.28;;
12675;SDS011;63820;65.654;21.944;2023-06-26T08:28:59;6.10;;;5.60;;
12675;SDS011;63820;65.654;21.944;2023-06-26T08:31:43;5.53;;;5.05;;
12675;SDS011;63820;65.654;21.944;2023-06-26T08:34:27;5.63;;;5.22;;
12675;SDS011;63820;65.654;21.944;2023-06-26T08:37:11;5.70;;;5.20;;
12675;SDS011;63820;65.654;21.944;2023-06-26T08:39:55;5.50;;;5.10;;
12675;SDS011;63820;65.654;21.944;2023-06-26T08:42:39;5.20;;;4.80;;
12675;SDS011;63820;65.654;21.944;2023-06-26T08:45:23;5.45;;;4.95;;
12675;SDS011;63820;65.654;21.944;2023-06-26T08:48:08;5.53;;;5.13;;
12675;SDS011;63820;65.654;21.944;2023-06-26T08:50:52;6.13;;;5.53;;
12675;SDS011;63820;65.654;21.944;2023-06-26T08:59:21;5.80;;;5.30;;
12675;SDS011;63820;65.654;21.944;2023-06-26T09:02:06;6.20;;;5.70;;
12675;SDS011;63820;65.654;21.944;2023-06-26T09:04:50;7.07;;;5.68;;
12675;SDS011;63820;65.654;21.944;2023-06-26T09:07:34;5.50;;;5.00;;
12675;SDS011;63820;65.654;21.944;2023-06-26T09:10:18;6.50;;;5.90;;
12675;SDS011;63820;65.654;21.944;2023-06-26T09:13:03;5.95;;;5.47;;
12675;SDS011;63820;65.654;21.944;2023-06-26T09:15:47;5.55;;;5.05;;
12675;SDS011;63820;65.654;21.944;2023-06-26T09:18:32;5.70;;;5.28;;
12675;SDS011;63820;65.654;21.944;2023-06-26T09:21:16;6.30;;;5.70;;
12675;SDS011;63820;65.654;21.944;2023-06-26T09:24:00;5.90;;;5.40;;
12675;SDS011;63820;65.654;21.944;2023-06-26T09:26:45;6.45;;;5.80;;
12675;SDS011;63820;65.654;21.944;2023-06-26T09:29:30;5.65;;;5.25;;
12675;SDS011;63820;65.654;21.944;2023-06-26T09:32:16;5.55;;;5.15;;
12675;SDS011;63820;65.654;21.944;2023-06-26T09:35:01;5.78;;;5.25;;
12675;SDS011;63820;65.654;21.944;2023-06-26T09:37:46;5.28;;;4.88;;
12675;SDS011;63820;65.654;21.944;2023-06-26T09:40:30;5.85;;;5.30;;
12675;SDS011;63820;65.654;21.944;2023-06-26T09:43:14;5.63;;;5.13;;
12675;SDS011;63820;65.654;21.944;2023-06-26T09:46:00;6.00;;;5.40;;
12675;SDS011;63820;65.654;21.944;2023-06-26T09:48:44;4.85;;;4.55;;
12675;SDS011;63820;65.654;21.944;2023-06-26T09:51:29;5.10;;;4.65;;
12675;SDS011;63820;65.654;21.944;2023-06-26T09:54:21;5.00;;;4.60;;
12675;SDS011;63820;65.654;21.944;2023-06-26T09:57:13;4.85;;;4.45;;
12675;SDS011;63820;65.654;21.944;2023-06-26T10:00:00;4.75;;;4.35;;
12675;SDS011;63820;65.654;21.944;2023-06-26T10:02:46;5.07;;;4.68;;
12675;SDS011;63820;65.654;21.944;2023-06-26T10:05:31;4.63;;;4.32;;
12675;SDS011;63820;65.654;21.944;2023-06-26T10:08:15;5.22;;;4.82;;
12675;SDS011;63820;65.654;21.944;2023-06-26T10:11:00;4.82;;;4.43;;
12675;SDS011;63820;65.654;21.944;2023-06-26T10:13:45;4.78;;;4.30;;
12675;SDS011;63820;65.654;21.944;2023-06-26T10:16:32;4.80;;;4.40;;
12675;SDS011;63820;65.654;21.944;2023-06-26T10:19:19;5.05;;;4.65;;
12675;SDS011;63820;65.654;21.944;2023-06-26T10:22:08;5.00;;;4.60;;
12675;SDS011;63820;65.654;21.944;2023-06-26T10:24:55;4.90;;;4.50;;
12675;SDS011;63820;65.654;21.944;2023-06-26T10:27:42;4.78;;;4.38;;
12675;SDS011;63820;65.654;21.944;2023-06-26T10:30:30;4.78;;;4.20;;
12675;SDS011;63820;65.654;21.944;2023-06-26T10:33:19;4.82;;;4.43;;
12675;SDS011;63820;65.654;21.944;2023-06-26T10:36:12;4.80;;;4.30;;
12675;SDS011;63820;65.654;21.944;2023-06-26T10:38:58;4.35;;;4.05;;
12675;SDS011;63820;65.654;21.944;2023-06-26T10:41:48;3.90;;;3.60;;
12675;SDS011;63820;65.654;21.944;2023-06-26T10:44:39;4.32;;;3.97;;
12675;SDS011;63820;65.654;21.944;2023-06-26T10:47:32;4.85;;;4.45;;
12675;SDS011;63820;65.654;21.944;2023-06-26T10:56:18;4.20;;;3.90;;
12675;SDS011;63820;65.654;21.944;2023-06-26T10:59:21;3.90;;;3.60;;
12675;SDS011;63820;65.654;21.944;2023-06-26T11:02:07;4.97;;;4.57;;
12675;SDS011;63820;65.654;21.944;2023-06-26T11:04:52;4.72;;;3.67;;
12675;SDS011;63820;65.654;21.944;2023-06-26T11:07:37;4.13;;;3.83;;
12675;SDS011;63820;65.654;21.944;2023-06-26T11:10:52;3.63;;;3.38;;
12675;SDS011;63820;65.654;21.944;2023-06-26T11:13:36;4.28;;;3.97;;
12675;SDS011;63820;65.654;21.944;2023-06-26T11:16:21;4.72;;;3.50;;
12675;SDS011;63820;65.654;21.944;2023-06-26T11:19:05;4.10;;;3.60;;
12675;SDS011;63820;65.654;21.944;2023-06-26T11:21:50;3.72;;;3.40;;
12675;SDS011;63820;65.654;21.944;2023-06-26T11:24:35;3.75;;;3.47;;
12675;SDS011;63820;65.654;21.944;2023-06-26T11:27:20;3.53;;;3.22;;
12675;SDS011;63820;65.654;21.944;2023-06-26T11:30:08;3.10;;;2.85;;
12675;SDS011;63820;65.654;21.944;2023-06-26T11:33:05;3.47;;;3.17;;
12675;SDS011;63820;65.654;21.944;2023-06-26T11:35:53;4.28;;;3.60;;
12675;SDS011;63820;65.654;21.944;2023-06-26T11:38:38;3.50;;;3.20;;
12675;SDS011;63820;65.654;21.944;2023-06-26T11:41:23;3.80;;;3.17;;
12675;SDS011;63820;65.654;21.944;2023-06-26T11:44:09;4.10;;;3.70;;
12675;SDS011;63820;65.654;21.944;2023-06-26T11:46:54;3.60;;;3.30;;
12675;SDS011;63820;65.654;21.944;2023-06-26T11:49:39;5.90;;;3.17;;
12675;SDS011;63820;65.654;21.944;2023-06-26T11:52:26;4.07;;;3.35;;
12675;SDS011;63820;65.654;21.944;2023-06-26T11:55:10;3.90;;;3.60;;
12675;SDS011;63820;65.654;21.944;2023-06-26T11:57:55;5.22;;;3.58;;
12675;SDS011;63820;65.654;21.944;2023-06-26T12:00:41;3.50;;;3.20;;
12675;SDS011;63820;65.654;21.944;2023-06-26T12:03:26;3.55;;;3.25;;
12675;SDS011;63820;65.654;21.944;2023-06-26T12:06:10;4.57;;;3.22;;
12675;SDS011;63820;65.654;21.944;2023-06-26T12:08:55;4.13;;;3.10;;
12675;SDS011;63820;65.654;21.944;2023-06-26T12:11:41;3.80;;;3.42;;
12675;SDS011;63820;65.654;21.944;2023-06-26T12:14:26;3.90;;;3.60;;
12675;SDS011;63820;65.654;21.944;2023-06-26T12:17:14;3.80;;;3.50;;
12675;SDS011;63820;65.654;21.944;2023-06-26T12:19:58;4.38;;;3.97;;
12675;SDS011;63820;65.654;21.944;2023-06-26T12:22:43;4.03;;;3.72;;
12675;SDS011;63820;65.654;21.944;2023-06-26T12:25:32;4.10;;;3.80;;
12675;SDS011;63820;65.654;21.944;2023-06-26T12:28:17;3.95;;;3.58;;
12675;SDS011;63820;65.654;21.944;2023-06-26T12:33:59;4.05;;;3.45;;
12675;SDS011;63820;65.654;21.944;2023-06-26T12:36:45;4.05;;;3.75;;
12675;SDS011;63820;65.654;21.944;2023-06-26T12:39:55;4.22;;;3.90;;
12675;SDS011;63820;65.654;21.944;2023-06-26T12:42:41;4.70;;;4.20;;
12675;SDS011;63820;65.654;21.944;2023-06-26T12:45:25;4.20;;;3.63;;
12675;SDS011;63820;65.654;21.944;2023-06-26T12:48:13;4.20;;;3.88;;
12675;SDS011;63820;65.654;21.944;2023-06-26T12:50:57;3.72;;;3.42;;
12675;SDS011;63820;65.654;21.944;2023-06-26T12:53:41;4.10;;;3.70;;
12675;SDS011;63820;65.654;21.944;2023-06-26T12:56:25;3.95;;;3.65;;
12675;SDS011;63820;65.654;21.944;2023-06-26T12:59:10;4.63;;;4.00;;
12675;SDS011;63820;65.654;21.944;2023-06-26T13:01:53;3.30;;;3.10;;
12675;SDS011;63820;65.654;21.944;2023-06-26T13:04:37;4.20;;;3.80;;
12675;SDS011;63820;65.654;21.944;2023-06-26T13:07:24;3.58;;;3.38;;
12675;SDS011;63820;65.654;21.944;2023-06-26T13:10:09;3.28;;;3.03;;
12675;SDS011;63820;65.654;21.944;2023-06-26T13:12:53;3.78;;;3.42;;
12675;SDS011;63820;65.654;21.944;2023-06-26T13:15:37;3.72;;;3.42;;
12675;SDS011;63820;65.654;21.944;2023-06-26T13:18:21;3.80;;;3.50;;
12675;SDS011;63820;65.654;21.944;2023-06-26T13:21:05;4.07;;;3.67;;
12675;SDS011;63820;65.654;21.944;2023-06-26T13:23:49;3.80;;;3.50;;
12675;SDS011;63820;65.654;21.944;2023-06-26T13:26:34;4.32;;;3.92;;
12675;SDS011;63820;65.654;21.944;2023-06-26T13:29:18;4.85;;;4.05;;
12675;SDS011;63820;65.654;21.944;2023-06-26T13:32:02;3.80;;;3.50;;
12675;SDS011;63820;65.654;21.944;2023-06-26T13:34:47;3.67;;;3.38;;
12675;SDS011;63820;65.654;21.944;2023-06-26T13:37:31;4.60;;;3.85;;
12675;SDS011;63820;65.654;21.944;2023-06-26T13:40:17;4.05;;;3.65;;
12675;SDS011;63820;65.654;21.944;2023-06-26T13:43:01;4.57;;;4.18;;
12675;SDS011;63820;65.654;21.944;2023-06-26T13:45:47;4.95;;;4.55;;
12675;SDS011;63820;65.654;21.944;2023-06-26T13:48:32;4.57;;;4.20;;
12675;SDS011;63820;65.654;21.944;2023-06-26T13:51:16;4.63;;;4.22;;
12675;SDS011;63820;65.654;21.944;2023-06-26T13:54:00;4.57;;;4.18;;
12675;SDS011;63820;65.654;21.944;2023-06-26T13:56:44;4.40;;;4.00;;
12675;SDS011;63820;65.654;21.944;2023-06-26T13:59:29;4.60;;;3.97;;
12675;SDS011;63820;65.654;21.944;2023-06-26T14:02:13;4.22;;;3.83;;
12675;SDS011;63820;65.654;21.944;2023-06-26T14:04:57;4.38;;;3.97;;
12675;SDS011;63820;65.654;21.944;2023-06-26T14:07:41;4.38;;;3.97;;
12675;SDS011;63820;65.654;21.944;2023-06-26T14:10:27;4.00;;;3.70;;
12675;SDS011;63820;65.654;21.944;2023-06-26T14:13:11;3.90;;;3.60;;
12675;SDS011;63820;65.654;21.944;2023-06-26T14:15:58;3.97;;;3.67;;
12675;SDS011;63820;65.654;21.944;2023-06-26T14:18:42;3.72;;;3.42;;
12675;SDS011;63820;65.654;21.944;2023-06-26T14:21:26;4.60;;;4.20;;
12675;SDS011;63820;65.654;21.944;2023-06-26T14:24:11;5.38;;;3.90;;
12675;SDS011;63820;65.654;21.944;2023-06-26T14:26:55;4.35;;;3.85;;
12675;SDS011;63820;65.654;21.944;2023-06-26T14:29:39;4.10;;;3.75;;
12675;SDS011;63820;65.654;21.944;2023-06-26T14:32:24;4.65;;;4.18;;
12675;SDS011;63820;65.654;21.944;2023-06-26T14:35:08;4.50;;;4.05;;
12675;SDS011;63820;65.654;21.944;2023-06-26T14:37:52;5.60;;;4.50;;
12675;SDS011;63820;65.654;21.944;2023-06-26T14:40:36;5.40;;;4.15;;
12675;SDS011;63820;65.654;21.944;2023-06-26T14:43:20;4.40;;;4.00;;
12675;SDS011;63820;65.654;21.944;2023-06-26T14:46:05;5.18;;;4.47;;
12675;SDS011;63820;65.654;21.944;2023-06-26T14:48:49;4.90;;;4.38;;
12675;SDS011;63820;65.654;21.944;2023-06-26T14:51:35;5.00;;;4.60;;
12675;SDS011;63820;65.654;21.944;2023-06-26T14:54:19;4.97;;;4.57;;
12675;SDS011;63820;65.654;21.944;2023-06-26T14:57:03;4.60;;;4.20;;
12675;SDS011;63820;65.654;21.944;2023-06-26T14:59:48;4.93;;;4.40;;
12675;SDS011;63820;65.654;21.944;2023-06-26T15:02:32;5.15;;;4.68;;
12675;SDS011;63820;65.654;21.944;2023-06-26T15:05:16;5.50;;;5.00;;
12675;SDS011;63820;65.654;21.944;2023-06-26T15:08:00;5.07;;;4.68;;
12675;SDS011;63820;65.654;21.944;2023-06-26T15:10:44;5.68;;;5.18;;
12675;SDS011;63820;65.654;21.944;2023-06-26T15:13:28;5.35;;;4.85;;
12675;SDS011;63820;65.654;21.944;2023-06-26T15:16:12;4.85;;;4.45;;
12675;SDS011;63820;65.654;21.944;2023-06-26T15:18:56;5.28;;;4.78;;
12675;SDS011;63820;65.654;21.944;2023-06-26T15:21:40;4.80;;;4.05;;
12675;SDS011;63820;65.654;21.944;2023-06-26T15:24:24;5.00;;;4.50;;
12675;SDS011;63820;65.654;21.944;2023-06-26T15:27:08;8.02;;;7.32;;
12675;SDS011;63820;65.654;21.944;2023-06-26T15:29:52;4.68;;;4.28;;
12675;SDS011;63820;65.654;21.944;2023-06-26T15:32:36;5.15;;;4.75;;
12675;SDS011;63820;65.654;21.944;2023-06-26T15:35:20;5.72;;;5.00;;
12675;SDS011;63820;65.654;21.944;2023-06-26T15:38:04;6.55;;;5.45;;
12675;SDS011;63820;65.654;21.944;2023-06-26T15:40:48;5.68;;;4.75;;
12675;SDS011;63820;65.654;21.944;2023-06-26T15:43:32;6.00;;;5.40;;
12675;SDS011;63820;65.654;21.944;2023-06-26T15:46:17;5.50;;;4.75;;
12675;SDS011;63820;65.654;21.944;2023-06-26T15:49:01;5.53;;;4.85;;
12675;SDS011;63820;65.654;21.944;2023-06-26T15:51:45;5.38;;;4.88;;
12675;SDS011;63820;65.654;21.944;2023-06-26T15:54:31;4.85;;;4.45;;
12675;SDS011;63820;65.654;21.944;2023-06-26T15:57:15;6.75;;;4.68;;
12675;SDS011;63820;65.654;21.944;2023-06-26T15:59:59;5.38;;;4.88;;
12675;SDS011;63820;65.654;21.944;2023-06-26T16:02:44;5.03;;;4.53;;
12675;SDS011;63820;65.654;21.944;2023-06-26T16:05:28;5.13;;;4.28;;
12675;SDS011;63820;65.654;21.944;2023-06-26T16:08:12;8.00;;;4.60;;
12675;SDS011;63820;65.654;21.944;2023-06-26T16:10:56;5.10;;;4.60;;
12675;SDS011;63820;65.654;21.944;2023-06-26T16:13:40;7.18;;;4.85;;
12675;SDS011;63820;65.654;21.944;2023-06-26T16:16:23;7.20;;;6.57;;
12675;SDS011;63820;65.654;21.944;2023-06-26T16:19:08;5.70;;;5.03;;
12675;SDS011;63820;65.654;21.944;2023-06-26T16:21:52;6.32;;;5.78;;
12675;SDS011;63820;65.654;21.944;2023-06-26T16:24:36;6.47;;;5.50;;
12675;SDS011;63820;65.654;21.944;2023-06-26T16:27:20;5.40;;;4.90;;